Time;durP1;ratioP1;P1;durP2;ratioP2;P2;SDS_P1;SDS_P2;PMS_P1;PMS_P2;Temp;Humidity;BMP_temperature;BMP_pressure;BME280_temperature;BME280_humidity;BME280_pressure;Samples;Min_cycle;Max_cycle;Signal;HPM_P1;HPM_P2
2023/01/20 00:03:50;;;;;;;5.90;4.72;;;4.70;57.20;;;3.16;59.88;100570.91;12276296;19;20010;-86
2023/01/20 00:07:52;;;;;;;8.00;4.90;;;4.80;57.20;;;2.98;59.87;100542.16;12281540;19;20014;-85
2023/01/20 00:11:54;;;;;;;8.48;5.75;;;4.80;57.20;;;3.10;59.90;100564.19;12281907;19;20010;-85
2023/01/20 00:15:56;;;;;;;8.05;4.68;;;5.10;57.20;;;3.24;59.87;100590.50;12280485;19;20050;-85
2023/01/20 00:19:58;;;;;;;6.05;4.72;;;4.80;57.10;;;3.18;59.92;100574.31;12277483;19;20018;-85
2023/01/20 00:23:59;;;;;;;6.85;4.78;;;4.80;57.10;;;3.27;59.95;100589.56;12281094;19;20083;-86
2023/01/20 00:28:02;;;;;;;6.00;4.28;;;4.90;57.50;;;3.27;60.03;100582.66;12283359;19;20058;-86
2023/01/20 00:32:04;;;;;;;9.35;4.80;;;4.90;57.20;;;3.21;60.05;100581.97;12281545;19;20014;-85
2023/01/20 00:36:07;;;;;;;6.95;4.80;;;4.90;57.20;;;3.33;59.85;100602.28;12278301;19;20051;-85
2023/01/20 00:40:10;;;;;;;5.90;4.70;;;4.90;57.10;;;3.32;59.90;100605.72;12277435;19;20054;-86
2023/01/20 00:44:12;;;;;;;5.90;4.13;;;4.90;57.00;;;3.15;60.01;100582.13;12277814;19;20021;-86
2023/01/20 00:48:14;;;;;;;5.88;4.15;;;5.00;57.10;;;3.25;59.87;100604.22;12278672;19;20025;-86
2023/01/20 00:52:17;;;;;;;4.72;4.05;;;4.90;57.00;;;3.22;59.79;100600.00;12279547;19;20058;-86
2023/01/20 00:56:19;;;;;;;5.55;3.63;;;4.90;57.00;;;3.20;59.89;100598.34;12278349;19;20003;-86
2023/01/20 01:00:21;;;;;;;6.85;4.57;;;5.20;57.20;;;3.18;60.13;100597.53;12276588;19;20018;-86
2023/01/20 01:04:22;;;;;;;6.28;4.43;;;4.90;57.00;;;3.27;59.98;100617.94;12274788;19;20397;-85
2023/01/20 01:08:24;;;;;;;6.93;5.05;;;4.90;57.00;;;3.37;60.06;100637.44;12273557;19;20476;-86
2023/01/20 01:12:26;;;;;;;6.22;4.18;;;4.90;57.10;;;3.39;60.04;100632.25;12274767;19;20014;-86
2023/01/20 01:16:28;;;;;;;5.72;4.57;;;4.90;57.10;;;3.38;60.08;100641.72;12269288;19;20014;-86
2023/01/20 01:20:30;;;;;;;8.35;5.85;;;5.00;57.10;;;3.45;60.14;100650.97;12271784;19;20011;-85
2023/01/20 01:24:32;;;;;;;8.27;5.53;;;5.00;57.10;;;3.32;59.89;100627.25;12270450;19;20019;-85
2023/01/20 01:28:34;;;;;;;8.80;6.00;;;5.00;57.20;;;3.34;60.02;100629.78;12272821;19;20364;-86
2023/01/20 01:32:36;;;;;;;7.88;5.35;;;5.00;57.20;;;3.43;60.15;100639.88;12271746;19;20042;-85
2023/01/20 01:36:38;;;;;;;6.72;5.43;;;5.30;57.30;;;3.17;60.02;100590.69;12264463;19;20040;-85
2023/01/20 01:40:39;;;;;;;9.55;5.45;;;5.10;57.20;;;3.53;59.93;100655.94;12264345;19;20074;-85
2023/01/20 01:45:09;;;;;;;6.93;4.82;;;5.20;57.30;;;3.53;60.02;100667.09;12266450;19;20019;-85
2023/01/20 01:49:18;;;;;;;5.10;4.30;;;5.10;57.30;;;3.55;60.25;100673.06;12270723;19;20014;-85
2023/01/20 01:53:20;;;;;;;7.35;5.40;;;5.10;57.30;;;3.51;60.04;100665.44;12267258;19;20384;-85
2023/01/20 01:57:22;;;;;;;6.32;4.95;;;5.30;57.40;;;3.49;60.01;100662.94;12265226;19;20044;-85
2023/01/20 02:01:43;;;;;;;7.25;4.93;;;5.20;57.30;;;3.51;60.05;100668.91;12262414;19;20059;-86
2023/01/20 02:05:51;;;;;;;7.22;4.78;;;5.10;57.30;;;3.54;60.01;100673.97;12264246;19;20010;-85
2023/01/20 02:09:53;;;;;;;;;;;5.20;57.40;;;3.61;60.16;100686.72;12267856;19;20464;-85
2023/01/20 02:13:55;;;;;;;4.75;3.97;;;5.20;57.30;;;3.37;60.14;100650.34;12263673;19;20272;-86
2023/01/20 02:19:01;;;;;;;4.95;4.43;;;5.20;57.20;;;3.60;60.16;100706.53;12266407;19;20018;-86
2023/01/20 02:23:36;;;;;;;7.78;5.30;;;5.20;57.20;;;3.62;60.12;100703.88;12263726;19;20500;-85
2023/01/20 02:28:11;;;;;;;6.57;4.93;;;5.20;57.20;;;3.62;60.04;100715.09;12263673;19;20034;-85
2023/01/20 02:33:07;;;;;;;8.00;4.47;;;5.20;57.30;;;3.55;60.04;100706.63;12265457;19;20011;-86
2023/01/20 02:37:29;;;;;;;8.82;4.95;;;5.20;57.30;;;3.53;59.94;100705.81;12261962;19;20011;-85
2023/01/20 02:42:15;;;;;;;6.43;5.15;;;5.30;57.30;;;3.67;59.97;100739.06;12264953;19;20041;-85
2023/01/20 02:46:32;;;;;;;7.47;4.72;;;5.30;57.30;;;3.69;60.20;100739.00;12271640;19;20033;-86
2023/01/20 02:51:00;;;;;;;4.43;3.90;;;5.20;57.20;;;3.69;60.04;100749.31;12277389;19;20013;-85
2023/01/20 02:55:24;;;;;;;5.22;4.22;;;5.30;57.20;;;3.57;59.93;100731.59;12276113;19;20482;-85
2023/01/20 02:59:31;;;;;;;5.63;4.30;;;5.30;57.20;;;3.63;60.27;100745.16;12274271;19;20022;-85
2023/01/20 03:03:37;;;;;;;6.32;4.13;;;5.30;57.20;;;3.66;60.18;100752.00;12274640;19;20013;-85
2023/01/20 03:07:44;;;;;;;7.78;4.53;;;5.30;57.20;;;3.74;60.22;100768.97;12276131;19;20014;-86
2023/01/20 03:12:00;;;;;;;5.53;4.50;;;5.30;57.20;;;3.76;60.05;100766.38;12276551;19;20015;-86
2023/01/20 03:16:16;;;;;;;5.88;4.57;;;5.30;57.20;;;3.75;59.98;100765.53;12270810;19;20105;-86
2023/01/20 03:20:18;;;;;;;7.28;4.72;;;5.50;57.20;;;3.80;60.09;100772.28;12270321;19;20017;-85
2023/01/20 03:24:20;;;;;;;5.15;4.22;;;5.30;57.20;;;3.73;60.13;100771.63;12271488;19;20130;-85
2023/01/20 03:28:22;;;;;;;9.15;5.13;;;5.30;57.20;;;3.77;60.18;100783.53;12272891;19;20022;-86
2023/01/20 03:32:25;;;;;;;8.05;4.63;;;5.30;57.20;;;3.75;60.17;100773.28;12274283;19;20030;-85
2023/01/20 03:36:30;;;;;;;6.85;4.88;;;5.30;57.20;;;3.68;60.21;100763.97;12270289;19;20015;-86
2023/01/20 03:40:58;;;;;;;8.13;4.93;;;5.40;57.20;;;3.79;60.15;100786.94;12269280;19;20022;-85
2023/01/20 03:45:22;;;;;;;7.38;5.38;;;5.50;57.30;;;3.81;60.15;100789.47;12271121;19;20023;-84
2023/01/20 03:50:03;;;;;;;5.28;4.03;;;5.40;57.20;;;3.70;60.17;100782.88;12256224;19;20034;-84
2023/01/20 03:54:11;;;;;;;4.70;3.92;;;5.40;57.20;;;3.77;59.97;100799.88;12250358;19;20014;-84
2023/01/20 03:58:22;;;;;;;4.88;4.03;;;5.30;57.10;;;3.70;60.16;100787.16;12250915;19;20479;-84
2023/01/20 04:02:26;;;;;;;6.90;4.30;;;5.30;57.10;;;3.79;60.22;100804.19;12250555;19;20015;-84
2023/01/20 04:06:29;;;;;;;4.75;3.88;;;5.50;57.20;;;3.62;60.24;100776.19;12247723;19;20042;-84
2023/01/20 04:10:34;;;;;;;4.97;3.72;;;5.30;57.10;;;3.66;60.20;100790.72;12252905;19;20010;-84
2023/01/20 04:14:36;;;;;;;5.65;4.47;;;5.60;57.20;;;3.64;60.21;100792.50;12250968;19;20003;-84
2023/01/20 04:18:44;;;;;;;5.40;4.05;;;5.30;57.10;;;3.76;60.25;100820.59;12250917;19;20007;-84
2023/01/20 04:22:57;;;;;;;5.35;4.40;;;5.30;57.00;;;3.73;60.13;100818.09;12253764;19;20018;-84
2023/01/20 04:26:59;;;;;;;6.03;4.30;;;5.30;57.10;;;3.71;59.96;100814.69;12252282;19;20010;-85
2023/01/20 04:31:01;;;;;;;7.70;4.70;;;5.30;57.00;;;3.78;60.21;100834.31;12251782;19;20014;-84
2023/01/20 04:35:03;;;;;;;6.30;4.20;;;5.30;57.00;;;3.58;59.98;100802.97;12255255;19;20498;-86
2023/01/20 04:39:05;;;;;;;6.38;4.13;;;5.30;57.00;;;3.68;60.10;100830.28;12267052;19;20046;-86
2023/01/20 04:43:08;;;;;;;7.32;4.60;;;5.50;57.10;;;3.84;60.08;100853.97;12268263;19;20015;-85
2023/01/20 04:47:10;;;;;;;7.35;4.38;;;5.30;57.00;;;3.86;60.20;100854.78;12266945;19;20025;-86
2023/01/20 04:51:12;;;;;;;9.23;4.22;;;5.40;57.10;;;3.64;60.03;100824.31;12262135;19;20028;-85
2023/01/20 04:55:14;;;;;;;5.80;3.80;;;5.30;57.00;;;3.51;60.08;100808.31;12256008;19;20114;-85
2023/01/20 04:59:15;;;;;;;5.30;4.22;;;5.30;57.00;;;3.40;60.03;100799.09;12259217;19;20053;-86
2023/01/20 05:03:17;;;;;;;5.63;4.30;;;5.70;57.20;;;3.83;60.10;100873.78;12259591;19;20031;-85
2023/01/20 05:07:19;;;;;;;5.35;4.03;;;5.40;57.10;;;3.84;60.18;100875.50;12262653;19;20472;-85
2023/01/20 05:11:20;;;;;;;6.53;4.50;;;5.40;57.00;;;3.78;60.08;100873.06;12266990;19;20022;-85
2023/01/20 05:15:22;;;;;;;6.45;4.53;;;5.40;57.00;;;3.70;60.27;100865.50;12260566;19;20031;-85
2023/01/20 05:19:24;;;;;;;6.63;4.38;;;5.40;57.00;;;3.85;60.09;100891.84;12265968;19;20018;-85
2023/01/20 05:23:25;;;;;;;6.00;4.75;;;5.30;57.00;;;3.49;60.07;100851.38;12264047;19;20023;-85
2023/01/20 05:27:27;;;;;;;7.82;5.00;;;5.50;57.40;;;3.73;60.21;100890.41;12262529;19;20017;-85
2023/01/20 05:31:30;;;;;;;7.43;5.22;;;5.40;57.10;;;3.78;60.16;100904.06;12261388;19;20025;-85
2023/01/20 05:35:32;;;;;;;9.40;5.35;;;5.30;57.00;;;3.86;60.07;100922.81;12258087;19;20367;-85
2023/01/20 05:39:33;;;;;;;6.35;4.72;;;5.30;57.00;;;3.88;60.23;100930.50;12254538;19;20014;-85
2023/01/20 05:43:36;;;;;;;9.18;5.70;;;5.40;57.10;;;3.88;60.23;100927.91;12253873;19;20018;-85
2023/01/20 05:47:37;;;;;;;7.68;5.43;;;5.40;57.10;;;3.85;60.28;100940.91;12258502;19;20507;-85
2023/01/20 05:51:39;;;;;;;7.85;5.43;;;5.40;57.00;;;3.86;60.09;100943.47;12258938;19;20011;-85
2023/01/20 05:55:40;;;;;;;9.60;5.88;;;5.40;57.40;;;3.70;60.08;100916.28;12254744;19;20022;-85
2023/01/20 05:59:44;;;;;;;6.78;5.43;;;5.40;57.10;;;3.82;60.16;100935.81;12254208;19;20011;-84
2023/01/20 06:03:45;;;;;;;9.45;5.78;;;5.30;57.00;;;3.85;60.17;100951.25;12256145;19;20018;-85
2023/01/20 06:07:48;;;;;;;9.40;5.63;;;5.30;57.10;;;3.85;60.21;100964.16;12256924;19;20015;-85
2023/01/20 06:11:50;;;;;;;10.25;6.70;;;5.40;57.10;;;3.77;60.31;100952.25;12259117;19;20069;-84
2023/01/20 06:15:55;;;;;;;8.15;5.95;;;5.40;57.10;;;3.76;60.11;100960.91;12253590;19;20010;-85
2023/01/20 06:19:57;;;;;;;;;;;5.40;57.10;;;3.86;60.17;100979.63;12254292;19;20018;-85
2023/01/20 06:23:59;;;;;;;6.88;4.63;;;5.40;57.00;;;3.61;60.13;100943.16;12255411;19;19935;-85
2023/01/20 06:28:01;;;;;;;11.25;5.88;;;5.40;56.90;;;3.85;60.04;100993.41;12255083;19;20010;-85
2023/01/20 06:32:04;;;;;;;9.57;6.05;;;5.40;56.90;;;3.88;60.30;101002.81;12256702;19;20022;-84
2023/01/20 06:36:07;;;;;;;8.98;5.95;;;5.40;56.90;;;3.87;60.26;100996.81;12253486;19;20451;-85
2023/01/20 06:40:10;;;;;;;8.63;5.72;;;5.40;57.00;;;3.88;60.18;101008.00;12253855;19;20019;-85
2023/01/20 06:44:12;;;;;;;7.53;5.43;;;5.40;56.90;;;3.86;60.15;101008.06;12252045;19;20025;-85
2023/01/20 06:48:14;;;;;;;12.32;6.53;;;5.40;57.00;;;3.80;60.28;101017.66;12256518;19;20103;-85
2023/01/20 06:52:15;;;;;;;8.68;5.93;;;5.40;57.00;;;3.88;60.34;101039.84;12255929;19;20401;-85
2023/01/20 06:56:17;;;;;;;8.65;6.35;;;5.50;57.00;;;3.80;60.29;101026.25;12250734;19;20031;-85
2023/01/20 07:00:19;;;;;;;11.82;7.00;;;5.70;57.10;;;3.88;60.23;101060.50;12248788;19;20018;-85
2023/01/20 07:04:21;;;;;;;9.63;6.43;;;5.40;56.90;;;3.89;60.40;101048.44;12246667;19;20006;-85
2023/01/20 07:08:23;;;;;;;7.53;5.72;;;5.40;57.00;;;3.90;60.00;101063.91;12251473;19;20427;-86
2023/01/20 07:12:25;;;;;;;7.80;5.93;;;5.40;56.90;;;3.88;60.30;101065.66;12249752;19;20460;-85
2023/01/20 07:16:26;;;;;;;8.00;6.05;;;5.40;56.90;;;3.86;60.27;101082.09;12247468;19;20010;-85
2023/01/20 07:20:28;;;;;;;8.88;6.55;;;5.40;56.90;;;3.78;60.36;101074.53;12251233;19;20022;-85
2023/01/20 07:24:29;;;;;;;10.55;6.05;;;5.40;57.00;;;3.88;60.25;101099.25;12250992;19;20010;-85
2023/01/20 07:28:32;;;;;;;8.73;6.45;;;5.40;57.00;;;3.89;60.17;101100.97;12260714;19;20018;-85
2023/01/20 07:32:34;;;;;;;9.73;6.55;;;5.50;57.10;;;3.74;60.15;101076.31;12265378;19;20346;-85
2023/01/20 07:36:36;;;;;;;11.85;6.57;;;5.40;57.00;;;3.89;60.31;101102.69;12258311;19;20030;-84
2023/01/20 07:40:38;;;;;;;9.45;6.60;;;5.40;57.00;;;3.57;60.21;101065.50;12264044;19;20019;-86
2023/01/20 07:44:39;;;;;;;12.48;7.43;;;5.40;57.10;;;3.87;60.10;101117.38;12258911;19;20023;-85
2023/01/20 07:48:42;;;;;;;9.25;6.55;;;5.30;57.00;;;3.82;60.17;101107.16;12271474;19;20010;-84
2023/01/20 07:52:44;;;;;;;11.35;6.78;;;5.60;57.20;;;3.51;60.23;101063.91;12268192;19;20022;-85
2023/01/20 07:56:46;;;;;;;9.48;6.90;;;5.30;57.00;;;3.78;60.10;101121.03;12263157;19;20014;-85
2023/01/20 08:00:47;;;;;;;13.23;7.22;;;5.30;57.10;;;3.57;60.23;101088.72;12268659;19;20025;-86
2023/01/20 08:04:49;;;;;;;11.55;8.30;;;5.30;57.00;;;3.72;60.16;101121.13;12269903;19;20027;-86
2023/01/20 08:08:52;;;;;;;11.82;7.68;;;5.30;57.00;;;3.76;60.21;101141.69;12269272;19;20009;-86
2023/01/20 08:12:54;;;;;;;10.55;6.80;;;5.30;57.00;;;3.78;60.28;101149.44;12255661;19;20473;-85
2023/01/20 08:16:55;;;;;;;9.52;6.70;;;5.20;57.00;;;3.68;60.05;101129.84;12260657;19;20014;-86
2023/01/20 08:20:58;;;;;;;11.88;7.60;;;5.20;57.00;;;3.67;60.31;101128.13;12253884;19;20044;-85
2023/01/20 08:25:00;;;;;;;10.82;7.03;;;5.40;57.10;;;3.82;60.28;101163.97;12258492;19;20033;-86
2023/01/20 08:29:08;;;;;;;10.80;7.32;;;5.30;57.10;;;3.47;60.28;101106.13;12263410;19;20517;-86
2023/01/20 08:33:10;;;;;;;11.18;7.97;;;5.30;57.10;;;3.72;60.20;101147.78;12262804;19;20489;-86
2023/01/20 08:37:12;;;;;;;10.88;7.43;;;5.30;57.10;;;3.69;60.07;101147.88;12258426;19;20050;-86
2023/01/20 08:41:22;;;;;;;11.20;7.88;;;5.30;57.10;;;3.80;60.29;101176.06;12257571;19;20604;-86
2023/01/20 08:45:23;;;;;;;12.13;6.93;;;5.50;57.20;;;3.79;60.29;101173.53;12257530;19;20027;-87
2023/01/20 08:49:25;;;;;;;11.88;6.55;;;5.30;57.10;;;3.72;60.27;101157.28;12264696;19;20023;-86
2023/01/20 08:53:27;;;;;;;11.80;8.27;;;5.40;57.10;;;3.71;60.33;101173.66;12262018;19;20023;-85
2023/01/20 08:57:28;;;;;;;10.95;7.50;;;5.30;57.10;;;3.80;60.18;101188.97;12265711;19;20010;-86
2023/01/20 09:01:34;;;;;;;13.50;8.13;;;5.20;57.00;;;3.82;60.15;101207.03;12257914;19;20032;-86
2023/01/20 09:05:36;;;;;;;9.88;7.13;;;5.30;57.00;;;3.59;60.30;101176.47;12253869;19;20018;-86
2023/01/20 09:09:38;;;;;;;10.57;6.75;;;5.30;57.00;;;3.74;60.36;101208.03;12256436;19;20411;-86
2023/01/20 09:13:40;;;;;;;10.93;7.00;;;5.30;57.00;;;3.74;60.12;101218.34;12258641;19;20026;-86
2023/01/20 09:17:41;;;;;;;10.82;7.18;;;5.30;57.00;;;3.73;60.23;101226.16;12258248;19;20018;-86
2023/01/20 09:21:43;;;;;;;10.60;7.25;;;5.30;56.90;;;3.71;60.29;101228.75;12256393;19;20031;-87
2023/01/20 09:25:45;;;;;;;10.65;7.00;;;5.20;57.00;;;3.50;60.33;101201.59;12252176;19;20048;-86
2023/01/20 09:29:46;;;;;;;10.75;7.13;;;5.20;56.90;;;3.75;60.32;101239.88;12257709;19;20027;-86
2023/01/20 09:33:48;;;;;;;12.13;7.78;;;5.40;57.10;;;3.73;60.24;101241.66;12256929;19;20025;-86
2023/01/20 09:47:29;;;;;;;13.93;7.63;;;5.20;57.00;;;3.63;60.38;101247.84;12257528;19;20027;-86
2023/01/20 09:56:26;;;;;;;11.57;7.72;;;5.20;57.00;;;3.70;60.35;101270.09;12254030;19;20015;-86
2023/01/20 10:00:32;;;;;;;13.15;7.18;;;5.20;57.00;;;3.73;60.10;101272.66;12255764;19;20007;-86
2023/01/20 10:04:47;;;;;;;11.07;7.03;;;5.20;57.00;;;3.61;60.15;101255.63;12254810;19;20090;-86
2023/01/20 10:09:04;;;;;;;12.93;7.65;;;5.20;57.00;;;3.73;60.35;101276.06;12257698;19;20480;-86
2023/01/20 10:13:18;;;;;;;13.18;7.65;;;5.20;57.00;;;3.64;60.13;101272.78;12257345;19;20021;-85
2023/01/20 10:17:23;;;;;;;9.88;7.22;;;5.30;57.10;;;3.78;60.29;101296.66;12257006;19;20014;-86
2023/01/20 10:21:39;;;;;;;13.30;7.35;;;5.30;57.00;;;3.44;60.19;101240.44;12256082;19;20014;-86
2023/01/20 10:26:05;;;;;;;11.85;7.88;;;5.20;57.00;;;3.66;60.26;101278.78;12254589;19;20015;-86
2023/01/20 10:30:29;;;;;;;11.95;7.93;;;5.20;57.00;;;3.71;60.33;101292.47;12256572;19;20510;-85
2023/01/20 10:34:45;;;;;;;13.90;8.90;;;5.30;57.00;;;3.76;60.18;101307.00;12255207;19;20074;-85
2023/01/20 10:39:09;;;;;;;10.18;7.30;;;5.20;56.90;;;3.72;60.39;101294.16;12256288;19;20022;-86
2023/01/20 10:43:16;;;;;;;11.18;7.20;;;5.20;57.00;;;3.71;60.26;101293.31;12256034;19;20019;-86
2023/01/20 10:47:49;;;;;;;12.60;7.60;;;5.30;57.00;;;3.78;60.36;101301.81;12255377;19;20018;-86
2023/01/20 10:52:21;;;;;;;11.43;6.60;;;5.30;57.00;;;3.82;60.39;101302.63;12257073;19;20014;-86
2023/01/20 10:56:26;;;;;;;11.88;7.05;;;5.30;57.10;;;3.84;60.13;101312.03;12253922;19;20022;-86
2023/01/20 11:00:30;;;;;;;14.38;7.72;;;5.30;57.00;;;3.82;60.16;101307.78;12256976;19;20622;-86
2023/01/20 11:04:34;;;;;;;13.27;8.10;;;5.30;56.90;;;3.77;59.97;101297.53;12263408;19;20787;-87
2023/01/20 11:08:37;;;;;;;12.18;8.27;;;5.30;56.80;;;3.47;60.33;101245.53;12269610;19;20038;-86
2023/01/20 11:12:42;;;;;;;12.75;8.55;;;5.50;57.00;;;3.56;60.23;101260.00;12273067;19;20015;-86
2023/01/20 11:16:48;;;;;;;12.40;7.15;;;5.30;56.90;;;3.82;60.38;101302.63;12275683;19;20029;-87
2023/01/20 11:21:04;;;;;;;14.02;7.65;;;5.50;57.00;;;3.83;60.39;101319.81;12267842;19;20085;-86
2023/01/20 11:25:26;;;;;;;10.88;7.10;;;5.60;57.00;;;3.72;60.32;101294.16;12268074;19;20349;-86
2023/01/20 11:29:30;;;;;;;15.15;8.13;;;5.30;56.90;;;3.76;60.04;101303.56;12276043;19;20010;-86
2023/01/20 11:33:32;;;;;;;13.30;7.57;;;5.30;56.90;;;3.86;60.51;101309.41;12271374;19;20042;-84
2023/01/20 11:37:38;;;;;;;14.18;8.00;;;5.30;56.90;;;3.81;60.31;101301.78;12272205;19;20042;-86
2023/01/20 11:41:40;;;;;;;12.48;7.18;;;5.30;56.90;;;3.63;60.28;101276.25;12275107;19;20003;-86
2023/01/20 11:45:42;;;;;;;15.88;9.43;;;5.40;56.90;;;3.86;60.47;101319.75;12268078;19;20010;-86
2023/01/20 11:49:43;;;;;;;14.68;8.02;;;5.40;56.90;;;3.76;60.28;101303.56;12272806;19;20029;-86
2023/01/20 11:53:45;;;;;;;13.32;7.53;;;5.30;56.80;;;3.75;60.44;101313.06;12274218;19;20017;-86
2023/01/20 11:57:59;;;;;;;13.63;7.97;;;5.30;56.90;;;3.74;60.39;101320.81;12272197;19;20084;-86
2023/01/20 12:02:03;;;;;;;12.18;7.32;;;5.40;56.90;;;3.91;60.17;101344.63;12271529;19;20641;-86
2023/01/20 12:06:11;;;;;;;14.30;7.53;;;5.40;56.90;;;3.90;60.32;101348.09;12267960;19;20023;-86
2023/01/20 12:10:21;;;;;;;11.60;7.35;;;5.40;56.90;;;3.93;60.38;101352.34;12269988;19;20018;-86
2023/01/20 12:14:48;;;;;;;13.32;8.20;;;5.40;56.90;;;3.92;60.43;101354.09;12265518;19;20022;-86
2023/01/20 12:18:56;;;;;;;13.40;7.80;;;5.50;56.90;;;3.89;60.26;101355.84;12269712;19;20022;-86
2023/01/20 12:23:54;;;;;;;13.15;7.95;;;5.40;56.80;;;3.89;60.34;101372.22;12266268;19;20227;-86
2023/01/20 12:28:04;;;;;;;10.38;7.32;;;5.40;56.70;;;3.84;60.28;101371.47;12264153;19;20011;-86
2023/01/20 12:32:07;;;;;;;15.60;8.02;;;5.60;56.80;;;3.82;60.35;101383.53;12265429;19;20502;-86
2023/01/20 12:36:48;;;;;;;14.43;7.95;;;5.40;56.80;;;3.80;60.33;101387.88;12262907;19;20015;-86
2023/01/20 12:40:53;;;;;;;14.23;8.13;;;5.40;56.80;;;3.84;60.17;101394.72;12261307;19;20015;-86
2023/01/20 12:45:28;;;;;;;12.95;8.48;;;5.40;56.80;;;3.84;60.11;101399.88;12260352;19;20680;-85
2023/01/20 12:50:10;;;;;;;12.85;7.53;;;5.40;56.90;;;3.90;60.25;101407.50;12270380;19;20018;-85
2023/01/20 12:55:07;;;;;;;13.05;6.97;;;5.40;56.90;;;3.87;60.35;101409.31;12268990;19;20014;-85
2023/01/20 12:59:20;;;;;;;11.32;7.47;;;5.40;56.80;;;3.92;60.33;101410.94;12264633;19;20018;-86
2023/01/20 13:04:05;;;;;;;19.10;8.93;;;5.40;56.90;;;3.94;60.37;101421.22;12264787;19;20019;-86
2023/01/20 13:08:44;;;;;;;12.05;7.93;;;5.40;56.90;;;3.94;60.38;101422.09;12265078;19;20131;-87
2023/01/20 13:13:09;;;;;;;13.38;7.78;;;5.40;56.90;;;3.97;60.42;101422.06;12259887;19;20346;-87
2023/01/20 13:17:43;;;;;;;17.63;11.23;;;5.60;56.90;;;4.00;60.23;101426.31;12261465;19;20407;-87
2023/01/20 13:21:47;;;;;;;16.58;9.32;;;5.50;56.80;;;3.92;60.32;101413.53;12260782;19;20467;-86
2023/01/20 13:25:50;;;;;;;12.70;8.00;;;5.50;56.70;;;3.90;60.23;101410.09;12255350;19;20025;-87
2023/01/20 13:29:54;;;;;;;16.77;9.38;;;5.70;56.70;;;3.69;60.25;101374.28;12261438;19;20010;-86
2023/01/20 13:34:22;;;;;;;22.30;10.67;;;5.60;56.70;;;4.01;60.16;101427.16;12260455;19;20011;-87
2023/01/20 13:38:34;;;;;;;15.32;9.95;;;5.50;56.70;;;3.88;60.23;101408.41;12260976;19;20287;-86
2023/01/20 13:42:35;;;;;;;16.73;9.50;;;5.60;56.70;;;4.01;60.26;101434.91;12263936;19;20023;-87
2023/01/20 13:46:44;;;;;;;16.17;9.85;;;5.70;56.70;;;3.91;60.28;101427.28;12254305;19;20034;-86
2023/01/20 13:50:48;;;;;;;15.05;9.02;;;5.50;56.60;;;3.96;60.27;101448.75;12259535;19;20014;-86
2023/01/20 13:54:50;;;;;;;15.43;8.98;;;5.50;56.70;;;3.91;60.20;101435.03;12258516;19;20010;-86
2023/01/20 13:58:53;;;;;;;14.25;8.65;;;5.50;56.70;;;3.99;60.33;101453.88;12257586;19;20086;-87
2023/01/20 14:02:55;;;;;;;13.88;8.82;;;5.60;56.80;;;3.67;60.36;101399.28;12259168;19;20014;-86
2023/01/20 14:07:01;;;;;;;14.57;8.55;;;5.50;56.70;;;3.73;60.10;101412.13;12257936;19;20063;-86
2023/01/20 14:11:25;;;;;;;15.82;8.98;;;5.50;56.60;;;3.92;60.29;101448.84;12255531;19;20015;-86
2023/01/20 14:15:33;;;;;;;15.52;9.20;;;5.70;56.80;;;3.95;60.33;101452.22;12257140;19;20017;-86
2023/01/20 14:19:37;;;;;;;13.38;8.95;;;5.60;56.70;;;3.83;60.23;101436.91;12255098;19;20031;-86
2023/01/20 14:23:39;;;;;;;16.20;9.02;;;5.60;56.70;;;3.80;60.27;101433.53;12256290;19;20014;-87
2023/01/20 14:27:43;;;;;;;18.02;9.90;;;5.60;56.70;;;3.98;60.18;101470.25;12259237;19;20021;-86
2023/01/20 14:31:45;;;;;;;14.32;8.30;;;5.60;56.60;;;3.96;60.17;101482.34;12262261;19;20118;-87
2023/01/20 14:35:47;;;;;;;14.50;8.02;;;5.60;56.70;;;3.99;60.32;101491.78;12256964;19;20011;-87
2023/01/20 14:39:50;;;;;;;13.38;8.40;;;5.90;56.70;;;3.92;60.25;101485.88;12267643;19;20006;-88
2023/01/20 14:43:51;;;;;;;14.25;9.00;;;5.60;56.70;;;3.80;60.24;101460.19;12267564;19;20018;-88
2023/01/20 14:47:55;;;;;;;16.63;10.20;;;5.60;56.70;;;4.15;60.39;101519.09;12266641;19;20022;-87
2023/01/20 14:51:58;;;;;;;16.77;10.17;;;5.60;56.60;;;4.09;60.29;101528.69;12268623;19;20011;-87
2023/01/20 14:56:23;;;;;;;14.65;8.85;;;5.70;56.60;;;4.01;60.26;101525.34;12264528;19;20006;-86
2023/01/20 15:00:31;;;;;;;14.57;8.95;;;5.80;56.60;;;4.00;60.31;101521.94;12263207;19;20021;-86
2023/01/20 15:04:36;;;;;;;14.45;8.35;;;5.60;56.60;;;4.07;60.25;101540.75;12264234;19;20022;-87
2023/01/20 15:08:37;;;;;;;15.37;8.87;;;5.70;56.60;;;4.14;60.34;101557.91;12268113;19;20382;-86
2023/01/20 15:12:45;;;;;;;16.13;10.35;;;5.70;56.60;;;4.11;60.15;101553.63;12269012;19;20267;-86
2023/01/20 15:16:48;;;;;;;14.00;9.10;;;5.60;56.60;;;3.95;60.08;101537.50;12261952;19;20096;-86
2023/01/20 15:20:56;;;;;;;17.27;9.48;;;5.80;56.70;;;3.96;60.13;101556.44;12263710;19;20011;-87
2023/01/20 15:25:11;;;;;;;16.77;8.70;;;5.60;56.60;;;3.92;60.31;101568.53;12256997;19;20018;-87
2023/01/20 15:29:30;;;;;;;17.08;10.15;;;5.50;56.50;;;3.76;60.21;101557.56;12265039;19;20127;-87
2023/01/20 15:33:32;;;;;;;13.55;8.55;;;5.50;56.60;;;3.89;60.37;101576.34;12264662;19;20021;-86
2023/01/20 15:37:34;;;;;;;16.80;8.80;;;5.80;56.70;;;3.86;60.45;101581.56;12253489;19;20011;-87
2023/01/20 15:41:35;;;;;;;15.70;9.05;;;5.50;56.70;;;3.74;60.29;101564.47;12265265;19;20018;-87
2023/01/20 15:45:37;;;;;;;13.15;8.40;;;5.50;56.80;;;3.98;60.45;101609.78;12260169;19;20507;-86
2023/01/20 15:49:39;;;;;;;16.50;8.65;;;5.50;56.80;;;3.99;60.28;101615.81;12264663;19;20024;-87
2023/01/20 15:53:41;;;;;;;14.27;9.02;;;5.50;56.80;;;3.90;60.32;101605.63;12260192;19;20030;-86
2023/01/20 15:57:45;;;;;;;14.88;8.80;;;5.80;56.90;;;3.86;60.23;101620.31;12261930;19;20041;-87
2023/01/20 16:01:48;;;;;;;13.23;8.65;;;5.50;56.80;;;3.69;60.21;101593.81;12254634;19;20010;-86
2023/01/20 16:05:53;;;;;;;13.10;8.35;;;5.50;56.80;;;3.78;60.38;101614.38;12257154;19;20011;-86
2023/01/20 16:09:54;;;;;;;12.90;7.83;;;5.50;56.80;;;3.95;60.26;101637.41;12258909;19;20006;-86
2023/01/20 16:13:56;;;;;;;14.30;8.70;;;5.50;56.90;;;3.91;60.28;101621.06;12259132;19;20015;-87
2023/01/20 16:17:58;;;;;;;16.60;8.77;;;5.50;56.80;;;4.02;60.36;101646.78;12259575;19;20011;-87
2023/01/20 16:21:59;;;;;;;15.25;10.52;;;5.50;56.90;;;3.87;60.20;101627.19;12259831;19;20018;-86
2023/01/20 16:26:01;;;;;;;20.20;11.57;;;5.60;56.90;;;4.01;60.12;101654.56;12258220;19;20011;-87
2023/01/20 16:30:03;;;;;;;18.48;10.30;;;5.60;56.80;;;3.91;60.21;101652.09;12260650;19;20022;-86
2023/01/20 16:34:06;;;;;;;18.55;11.27;;;5.60;56.70;;;3.97;60.08;101659.78;12260327;19;20015;-87
2023/01/20 16:38:13;;;;;;;20.70;11.48;;;5.50;56.60;;;3.83;60.40;101648.75;12259713;19;20026;-87
2023/01/20 16:42:15;;;;;;;20.30;11.75;;;5.50;56.60;;;3.82;60.23;101657.38;12258909;19;20038;-85
2023/01/20 16:46:27;;;;;;;19.02;10.90;;;5.40;56.60;;;3.87;60.33;101693.50;12256249;19;20448;-86
2023/01/20 16:50:29;;;;;;;20.45;10.85;;;5.40;56.60;;;3.77;60.06;101683.25;12263417;19;20013;-86
2023/01/20 16:54:30;;;;;;;19.00;10.63;;;5.40;56.70;;;3.89;60.26;101707.22;12259409;19;20021;-87
2023/01/20 16:58:32;;;;;;;16.33;10.43;;;5.30;56.60;;;3.26;60.19;101617.56;12266812;19;20030;-87
2023/01/20 17:02:34;;;;;;;19.15;11.32;;;5.40;56.70;;;3.75;60.20;101718.59;12261546;19;20373;-86
2023/01/20 17:06:36;;;;;;;17.20;10.75;;;5.30;56.60;;;3.82;60.14;101724.53;12261015;19;20464;-87
2023/01/20 17:10:38;;;;;;;16.10;10.57;;;5.30;56.70;;;3.72;60.06;101715.19;12263115;19;20018;-87
2023/01/20 17:14:39;;;;;;;21.42;11.77;;;5.30;56.70;;;3.75;60.34;101725.47;12257120;19;20020;-87
2023/01/20 17:18:44;;;;;;;18.40;11.18;;;5.20;56.70;;;3.65;60.18;101710.97;12262365;19;20472;-87
2023/01/20 17:22:46;;;;;;;22.73;12.07;;;5.20;56.60;;;3.62;60.07;101713.56;12258545;19;20475;-87
2023/01/20 17:26:47;;;;;;;18.95;11.23;;;5.20;56.70;;;3.51;60.08;101714.56;12257536;19;20158;-87
2023/01/20 17:30:49;;;;;;;24.85;11.70;;;5.20;56.70;;;3.63;60.25;101741.13;12261782;19;20014;-87